createdAt,value
2023-05-14T00:00:32.060Z,8.63
2023-05-14T00:02:58.562Z,8.63
2023-05-14T00:05:25.122Z,8.64
2023-05-14T00:07:51.488Z,8.64
2023-05-14T00:10:18.112Z,8.60
2023-05-14T00:12:44.445Z,8.57
2023-05-14T00:15:10.823Z,8.55
2023-05-14T00:17:37.418Z,8.52
2023-05-14T00:20:05.400Z,8.50
2023-05-14T00:22:31.730Z,8.46
2023-05-14T00:24:58.006Z,8.46
2023-05-14T00:27:24.348Z,8.47
2023-05-14T00:29:50.718Z,8.47
2023-05-14T00:32:17.014Z,8.43
2023-05-14T00:34:43.290Z,8.39
2023-05-14T00:37:09.748Z,8.36
2023-05-14T00:39:36.031Z,8.36
2023-05-14T00:42:02.331Z,8.35
2023-05-14T00:44:28.760Z,8.32
2023-05-14T00:46:55.421Z,8.32
2023-05-14T00:49:22.394Z,8.30
2023-05-14T00:51:49.029Z,8.28
2023-05-14T00:54:19.584Z,8.23
2023-05-14T00:56:46.940Z,8.20
2023-05-14T00:59:13.979Z,8.20
2023-05-14T01:01:40.484Z,8.21
2023-05-14T01:04:07.483Z,8.24
2023-05-14T01:06:54.901Z,8.22
2023-05-14T01:10:00.917Z,8.26
2023-05-14T01:12:50.536Z,8.25
2023-05-14T01:15:23.812Z,8.24
2023-05-14T01:18:10.837Z,8.19
2023-05-14T01:20:37.237Z,8.15
2023-05-14T01:23:03.882Z,8.16
2023-05-14T01:25:31.129Z,8.19
2023-05-14T01:28:19.991Z,8.22
2023-05-14T01:30:56.649Z,8.27
2023-05-14T01:33:25.723Z,8.32
2023-05-14T01:35:53.897Z,8.36
2023-05-14T01:38:21.606Z,8.44
2023-05-14T01:40:50.233Z,8.51
2023-05-14T01:43:16.933Z,8.58
2023-05-14T01:45:43.759Z,8.63
2023-05-14T01:48:10.208Z,8.64
2023-05-14T01:50:36.548Z,8.67
2023-05-14T01:53:03.002Z,8.73
2023-05-14T01:55:29.312Z,8.83
2023-05-14T01:57:55.573Z,8.88
2023-05-14T02:00:24.396Z,8.88
2023-05-14T02:02:51.259Z,8.88
2023-05-14T02:05:17.758Z,8.88
2023-05-14T02:07:44.505Z,8.93
2023-05-14T02:10:11.034Z,8.99
2023-05-14T02:12:37.330Z,9.04
2023-05-14T02:15:04.266Z,9.07
2023-05-14T02:17:30.569Z,9.13
2023-05-14T02:19:56.924Z,9.19
2023-05-14T02:22:23.266Z,9.27
2023-05-14T02:24:49.568Z,9.33
2023-05-14T02:27:15.883Z,9.40
2023-05-14T02:29:42.208Z,9.46
2023-05-14T02:32:08.641Z,9.51
2023-05-14T02:34:35.051Z,9.55
2023-05-14T02:37:01.498Z,9.58
2023-05-14T02:39:27.788Z,9.61
2023-05-14T02:41:54.074Z,9.66
2023-05-14T02:44:20.456Z,9.69
2023-05-14T02:46:48.073Z,9.69
2023-05-14T02:49:14.466Z,9.66
2023-05-14T02:51:40.848Z,9.66
2023-05-14T02:54:07.130Z,9.67
2023-05-14T02:56:33.440Z,9.64
2023-05-14T02:58:59.760Z,9.60
2023-05-14T03:01:26.788Z,9.52
2023-05-14T03:03:53.565Z,9.43
2023-05-14T03:06:19.965Z,9.39
2023-05-14T03:08:46.276Z,9.36
2023-05-14T03:11:12.599Z,9.31
2023-05-14T03:13:38.929Z,9.33
2023-05-14T03:16:05.435Z,9.35
2023-05-14T03:18:31.763Z,9.37
2023-05-14T03:20:58.192Z,9.38
2023-05-14T03:23:24.543Z,9.39
2023-05-14T03:25:50.842Z,9.40
2023-05-14T03:28:17.153Z,9.41
2023-05-14T03:30:43.501Z,9.43
2023-05-14T03:33:09.918Z,9.43
2023-05-14T03:35:36.192Z,9.44
2023-05-14T03:38:02.475Z,9.45
2023-05-14T03:40:28.896Z,9.49
2023-05-14T03:42:55.163Z,9.51
2023-05-14T03:45:21.518Z,9.50
2023-05-14T03:47:47.927Z,9.52
2023-05-14T03:50:14.384Z,9.51
2023-05-14T03:52:40.662Z,9.51
2023-05-14T03:55:07.309Z,9.52
2023-05-14T03:57:33.633Z,9.53
2023-05-14T04:00:00.013Z,9.55
2023-05-14T04:02:26.325Z,9.57
2023-05-14T04:04:52.843Z,9.63
2023-05-14T04:07:19.192Z,9.70
2023-05-14T04:09:45.484Z,9.70
2023-05-14T04:12:11.804Z,9.72
2023-05-14T04:14:38.308Z,9.71
2023-05-14T04:17:04.626Z,9.76
2023-05-14T04:19:31.044Z,9.79
2023-05-14T04:21:57.442Z,9.88
2023-05-14T04:24:23.737Z,9.94
2023-05-14T04:26:50.109Z,9.96
2023-05-14T04:29:16.489Z,9.97
2023-05-14T04:31:42.860Z,10.01
2023-05-14T04:34:09.162Z,10.03
2023-05-14T04:36:35.628Z,10.03
2023-05-14T04:39:01.935Z,10.05
2023-05-14T04:41:28.358Z,10.10
2023-05-14T04:43:56.469Z,10.18
2023-05-14T04:46:23.003Z,10.23
2023-05-14T04:48:49.365Z,10.25
2023-05-14T04:51:15.780Z,10.28
2023-05-14T04:53:42.193Z,10.30
2023-05-14T04:56:08.609Z,10.35
2023-05-14T04:58:35.322Z,10.44
2023-05-14T05:01:04.114Z,10.46
2023-05-14T05:03:30.493Z,10.47
2023-05-14T05:05:57.074Z,10.47
2023-05-14T05:08:23.616Z,10.55
2023-05-14T05:10:50.005Z,10.64
2023-05-14T05:13:16.283Z,10.75
2023-05-14T05:15:43.565Z,10.82
2023-05-14T05:18:09.854Z,10.89
2023-05-14T05:20:36.158Z,10.86
2023-05-14T05:23:02.413Z,10.94
2023-05-14T05:25:28.738Z,10.99
2023-05-14T05:27:55.044Z,11.11
2023-05-14T05:30:21.389Z,11.19
2023-05-14T05:32:48.163Z,11.23
2023-05-14T05:35:14.486Z,11.34
2023-05-14T05:37:41.261Z,11.31
2023-05-14T05:40:08.217Z,11.27
2023-05-14T05:42:34.512Z,11.26
2023-05-14T05:45:00.852Z,11.34
2023-05-14T05:47:27.225Z,11.34
2023-05-14T05:49:53.524Z,11.39
2023-05-14T05:52:20.037Z,11.44
2023-05-14T05:54:46.341Z,11.48
2023-05-14T05:57:12.734Z,11.46
2023-05-14T05:59:39.054Z,11.55
2023-05-14T06:02:05.412Z,11.64
2023-05-14T06:04:31.816Z,11.79
2023-05-14T06:06:58.114Z,11.93
2023-05-14T06:09:24.596Z,12.08
2023-05-14T06:11:51.070Z,12.21
2023-05-14T06:14:17.438Z,12.36
2023-05-14T06:16:43.750Z,12.45
2023-05-14T06:19:10.257Z,12.50
2023-05-14T06:21:36.641Z,12.49
2023-05-14T06:24:02.957Z,12.55
2023-05-14T06:26:29.357Z,12.65
2023-05-14T06:28:55.645Z,12.77
2023-05-14T06:31:22.158Z,12.74
2023-05-14T06:33:48.526Z,12.65
2023-05-14T06:36:14.811Z,12.68
2023-05-14T06:38:41.179Z,12.81
2023-05-14T06:41:07.595Z,12.95
2023-05-14T06:43:33.952Z,13.11
2023-05-14T06:46:00.266Z,13.24
2023-05-14T06:48:27.149Z,13.33
2023-05-14T06:50:53.572Z,13.57
2023-05-14T06:53:19.962Z,13.84
2023-05-14T06:55:49.079Z,14.05
2023-05-14T06:58:15.388Z,14.26
2023-05-14T07:00:41.804Z,14.36
2023-05-14T07:03:08.138Z,14.44
2023-05-14T07:05:34.657Z,14.57
2023-05-14T07:08:01.057Z,14.65
2023-05-14T07:10:27.479Z,14.81
2023-05-14T07:12:53.800Z,14.98
2023-05-14T07:15:20.099Z,15.17
2023-05-14T07:17:46.475Z,15.32
2023-05-14T07:20:13.123Z,15.40
2023-05-14T07:22:39.427Z,15.48
2023-05-14T07:25:05.997Z,15.45
2023-05-14T07:27:32.308Z,15.50
2023-05-14T07:29:58.588Z,15.68
2023-05-14T07:32:24.979Z,15.89
2023-05-14T07:34:51.582Z,15.77
2023-05-14T07:37:18.112Z,15.80
2023-05-14T07:39:44.399Z,15.90
2023-05-14T07:42:11.706Z,15.78
2023-05-14T07:44:40.114Z,15.96
2023-05-14T07:47:06.504Z,15.98
2023-05-14T07:49:32.809Z,16.15
2023-05-14T07:51:59.208Z,16.23
2023-05-14T07:54:25.706Z,16.39
2023-05-14T07:56:52.047Z,16.56
2023-05-14T07:59:18.373Z,16.58
2023-05-14T08:01:44.828Z,16.70
2023-05-14T08:04:11.223Z,16.81
2023-05-14T08:06:37.802Z,17.02
2023-05-14T08:09:04.208Z,17.08
2023-05-14T08:11:30.718Z,17.26
2023-05-14T08:13:57.008Z,17.15
2023-05-14T08:16:23.376Z,17.11
2023-05-14T08:18:49.894Z,17.17
2023-05-14T08:21:16.198Z,17.24
2023-05-14T08:23:42.526Z,17.42
2023-05-14T08:26:09.042Z,17.57
2023-05-14T08:28:35.330Z,17.58
2023-05-14T08:31:01.883Z,17.56
2023-05-14T08:33:28.186Z,17.49
2023-05-14T08:35:54.481Z,17.48
2023-05-14T08:38:20.885Z,17.49
2023-05-14T08:40:56.976Z,17.30
2023-05-14T08:43:29.707Z,17.31
2023-05-14T08:46:00.482Z,17.09
2023-05-14T08:48:32.013Z,17.24
2023-05-14T08:50:59.505Z,17.10
2023-05-14T08:53:26.248Z,17.16
2023-05-14T08:55:53.621Z,17.20
2023-05-14T08:58:20.261Z,17.26
2023-05-14T09:00:46.795Z,17.22
2023-05-14T09:03:14.078Z,16.97
2023-05-14T09:05:41.106Z,17.00
2023-05-14T09:08:07.569Z,16.91
2023-05-14T09:10:33.975Z,16.95
2023-05-14T09:13:00.367Z,17.04
2023-05-14T09:15:29.002Z,17.12
2023-05-14T09:17:56.541Z,17.16
2023-05-14T09:20:24.504Z,17.15
2023-05-14T09:22:54.269Z,17.40
2023-05-14T09:25:20.555Z,17.70
2023-05-14T09:27:47.351Z,18.01
2023-05-14T09:30:14.289Z,18.20
2023-05-14T09:32:44.332Z,18.36
2023-05-14T09:35:17.734Z,18.24
2023-05-14T09:37:46.297Z,18.05
2023-05-14T09:40:13.617Z,18.00
2023-05-14T09:42:40.776Z,18.04
2023-05-14T09:45:07.577Z,18.03
2023-05-14T09:47:34.118Z,18.23
2023-05-14T09:50:00.516Z,18.08
2023-05-14T09:52:27.307Z,17.94
2023-05-14T09:54:53.787Z,17.65
2023-05-14T09:57:20.856Z,17.92
2023-05-14T09:59:47.229Z,17.94
2023-05-14T10:02:25.134Z,18.27
2023-05-14T10:04:53.782Z,18.24
2023-05-14T10:07:23.367Z,18.52
2023-05-14T10:09:57.677Z,18.67
2023-05-14T10:12:32.356Z,18.58
2023-05-14T10:15:03.522Z,18.89
2023-05-14T10:17:34.486Z,18.66
2023-05-14T10:20:02.390Z,18.63
2023-05-14T10:22:33.607Z,18.48
2023-05-14T10:25:00.773Z,18.33
2023-05-14T10:27:27.361Z,18.07
2023-05-14T10:29:55.439Z,17.73
2023-05-14T10:32:23.979Z,17.42
2023-05-14T10:34:50.656Z,17.69
2023-05-14T10:37:19.224Z,17.50
2023-05-14T10:39:45.633Z,17.47
2023-05-14T10:42:31.344Z,17.39
2023-05-14T10:45:01.031Z,17.26
2023-05-14T10:47:32.115Z,17.44
2023-05-14T10:50:02.814Z,17.47
2023-05-14T10:52:29.797Z,17.47
2023-05-14T10:55:03.069Z,17.34
2023-05-14T10:57:32.035Z,17.30
2023-05-14T11:00:00.230Z,17.45
2023-05-14T11:02:35.050Z,17.69
2023-05-14T11:05:03.944Z,17.73
2023-05-14T11:07:38.679Z,18.12
2023-05-14T11:10:16.296Z,18.28
2023-05-14T11:12:45.509Z,18.37
2023-05-14T11:15:14.443Z,18.55
2023-05-14T11:17:42.332Z,18.72
2023-05-14T11:20:10.132Z,18.94
2023-05-14T11:22:37.809Z,19.08
2023-05-14T11:25:05.114Z,18.98
2023-05-14T11:27:33.753Z,18.83
2023-05-14T11:30:00.261Z,18.71
2023-05-14T11:32:27.219Z,18.97
2023-05-14T11:34:53.784Z,19.27
2023-05-14T11:37:20.123Z,19.43
2023-05-14T11:39:48.706Z,19.38
2023-05-14T11:42:15.242Z,19.35
2023-05-14T11:44:41.758Z,19.44
2023-05-14T11:47:08.105Z,19.24
2023-05-14T11:49:34.477Z,19.23
2023-05-14T11:52:02.652Z,19.30
2023-05-14T11:54:29.767Z,19.21
2023-05-14T11:56:57.084Z,19.23
2023-05-14T11:59:31.607Z,19.20
2023-05-14T12:01:58.994Z,19.20
2023-05-14T12:04:25.915Z,19.16
2023-05-14T12:06:53.016Z,19.08
2023-05-14T12:09:19.851Z,19.09
2023-05-14T12:11:47.072Z,18.93
2023-05-14T12:14:21.510Z,19.14
2023-05-14T12:16:48.989Z,19.12
2023-05-14T12:19:17.783Z,18.98
2023-05-14T12:21:45.947Z,19.05
2023-05-14T12:24:13.875Z,19.10
2023-05-14T12:26:43.767Z,19.09
2023-05-14T12:29:12.875Z,18.96
2023-05-14T12:31:45.830Z,19.15
2023-05-14T12:34:12.136Z,19.33
2023-05-14T12:36:38.442Z,19.71
2023-05-14T12:39:04.829Z,19.89
2023-05-14T12:41:31.376Z,19.46
2023-05-14T12:43:58.095Z,19.43
2023-05-14T12:46:26.311Z,19.54
2023-05-14T12:48:53.735Z,19.54
2023-05-14T12:51:21.084Z,19.55
2023-05-14T12:53:47.892Z,19.48
2023-05-14T12:56:14.296Z,19.45
2023-05-14T12:58:40.778Z,19.40
2023-05-14T13:01:07.371Z,19.32
2023-05-14T13:03:33.847Z,19.43
2023-05-14T13:06:00.344Z,19.56
2023-05-14T13:08:26.804Z,19.69
2023-05-14T13:10:56.348Z,19.61
2023-05-14T13:13:23.589Z,19.92
2023-05-14T13:15:50.090Z,20.09
2023-05-14T13:18:17.982Z,19.91
2023-05-14T13:20:46.166Z,19.91
2023-05-14T13:23:12.612Z,19.89
2023-05-14T13:25:38.921Z,19.64
2023-05-14T13:28:05.488Z,19.78
2023-05-14T13:30:31.789Z,20.02
2023-05-14T13:32:59.249Z,20.02
2023-05-14T13:35:25.715Z,20.16
2023-05-14T13:37:52.201Z,19.97
2023-05-14T13:40:18.588Z,19.93
2023-05-14T13:42:44.907Z,19.86
2023-05-14T13:45:12.480Z,19.84
2023-05-14T13:47:40.189Z,20.01
2023-05-14T13:50:07.424Z,20.12
2023-05-14T13:52:33.608Z,20.11
2023-05-14T13:54:59.925Z,20.03
2023-05-14T13:57:26.312Z,20.16
2023-05-14T13:59:52.735Z,20.06
2023-05-14T14:02:19.142Z,19.81
2023-05-14T14:04:45.578Z,19.81
2023-05-14T14:07:11.944Z,19.73
2023-05-14T14:09:38.434Z,19.77
2023-05-14T14:12:05.650Z,19.98
2023-05-14T14:14:32.108Z,20.14
2023-05-14T14:16:58.486Z,20.03
2023-05-14T14:19:24.788Z,19.94
2023-05-14T14:24:22.430Z,19.88
2023-05-14T14:26:48.818Z,19.81
2023-05-14T14:29:15.109Z,19.88
2023-05-14T14:31:41.492Z,20.11
2023-05-14T14:34:07.816Z,19.99
2023-05-14T14:36:34.138Z,20.02
2023-05-14T14:39:00.458Z,20.03
2023-05-14T14:41:26.886Z,20.08
2023-05-14T14:43:53.197Z,19.83
2023-05-14T14:46:19.503Z,19.82
2023-05-14T14:48:45.941Z,19.88
2023-05-14T14:51:12.241Z,19.88
2023-05-14T14:53:38.780Z,19.47
2023-05-14T14:56:05.404Z,19.42
2023-05-14T14:58:32.073Z,19.51
2023-05-14T15:00:58.694Z,19.60
2023-05-14T15:03:25.671Z,19.63
2023-05-14T15:05:52.507Z,19.68
2023-05-14T15:08:19.236Z,19.83
2023-05-14T15:10:45.554Z,20.12
2023-05-14T15:13:12.409Z,20.21
2023-05-14T15:15:38.747Z,19.99
2023-05-14T15:18:05.249Z,19.85
2023-05-14T15:20:31.737Z,19.88
2023-05-14T15:22:58.057Z,19.79
2023-05-14T15:25:25.245Z,19.82
2023-05-14T15:27:51.860Z,19.62
2023-05-14T15:30:18.336Z,19.41
2023-05-14T15:32:45.137Z,19.22
2023-05-14T15:35:11.559Z,19.19
2023-05-14T15:37:40.268Z,18.99
2023-05-14T15:40:07.432Z,19.01
2023-05-14T15:42:35.759Z,19.00
2023-05-14T15:45:02.277Z,18.89
2023-05-14T15:47:28.705Z,18.92
2023-05-14T15:49:55.009Z,19.00
2023-05-14T15:52:22.135Z,18.95
2023-05-14T15:54:48.898Z,19.04
2023-05-14T15:57:16.921Z,19.12
2023-05-14T15:59:44.123Z,19.18
2023-05-14T16:02:11.026Z,19.26
2023-05-14T16:04:37.458Z,19.35
2023-05-14T16:07:09.447Z,19.43
2023-05-14T16:09:36.526Z,19.54
2023-05-14T16:12:03.136Z,19.53
2023-05-14T16:14:29.460Z,19.80
2023-05-14T16:16:55.902Z,20.10
2023-05-14T16:19:22.341Z,20.30
2023-05-14T16:21:48.751Z,20.49
2023-05-14T16:24:18.074Z,20.66
2023-05-14T16:26:44.734Z,21.08
2023-05-14T16:29:11.691Z,21.52
2023-05-14T16:31:38.029Z,21.89
2023-05-14T16:34:04.551Z,22.23
2023-05-14T16:36:30.966Z,22.42
2023-05-14T16:39:07.076Z,22.71
2023-05-14T16:41:35.527Z,23.20
2023-05-14T16:44:02.122Z,23.60
2023-05-14T16:46:28.636Z,23.61
2023-05-14T16:48:55.110Z,23.65
2023-05-14T16:51:21.479Z,23.97
2023-05-14T16:53:47.848Z,24.24
2023-05-14T16:56:14.142Z,24.29
2023-05-14T16:58:40.504Z,24.70
2023-05-14T17:01:09.481Z,25.54
2023-05-14T17:03:36.221Z,25.69
2023-05-14T17:06:02.704Z,26.05
2023-05-14T17:08:29.503Z,26.44
2023-05-14T17:10:55.824Z,26.86
2023-05-14T17:13:22.128Z,27.09
2023-05-14T17:15:48.484Z,26.63
2023-05-14T17:18:14.865Z,26.83
2023-05-14T17:20:41.349Z,26.60
2023-05-14T17:23:07.717Z,26.40
2023-05-14T17:25:34.096Z,26.50
2023-05-14T17:28:00.444Z,26.94
2023-05-14T17:30:27.184Z,27.21
2023-05-14T17:32:53.669Z,27.35
2023-05-14T17:35:20.144Z,27.66
2023-05-14T17:37:46.566Z,27.88
2023-05-14T17:40:13.228Z,27.80
2023-05-14T17:42:39.581Z,26.90
2023-05-14T17:45:06.604Z,26.54
2023-05-14T17:47:32.993Z,26.00
2023-05-14T17:49:59.345Z,26.08
2023-05-14T17:52:25.846Z,25.80
2023-05-14T17:54:52.145Z,25.47
2023-05-14T17:57:18.494Z,25.31
2023-05-14T17:59:44.952Z,25.10
2023-05-14T18:02:11.282Z,25.08
2023-05-14T18:04:37.583Z,25.09
2023-05-14T18:07:04.253Z,24.94
2023-05-14T18:09:30.511Z,24.37
2023-05-14T18:11:57.102Z,23.67
2023-05-14T18:14:23.555Z,22.94
2023-05-14T18:16:50.031Z,21.94
2023-05-14T18:19:16.605Z,21.24
2023-05-14T18:21:42.924Z,20.28
2023-05-14T18:24:09.242Z,19.78
2023-05-14T18:26:35.700Z,19.39
2023-05-14T18:29:02.010Z,19.00
2023-05-14T18:31:28.502Z,18.70
2023-05-14T18:33:54.887Z,18.38
2023-05-14T18:36:21.412Z,18.08
2023-05-14T18:38:47.819Z,17.85
2023-05-14T18:41:14.135Z,17.54
2023-05-14T18:43:40.503Z,17.39
2023-05-14T18:46:07.229Z,17.19
2023-05-14T18:48:33.556Z,17.05
2023-05-14T18:51:00.130Z,16.93
2023-05-14T18:53:26.497Z,16.82
2023-05-14T18:55:52.867Z,16.75
2023-05-14T18:58:19.220Z,16.64
2023-05-14T19:00:45.880Z,16.55
2023-05-14T19:03:12.309Z,16.45
2023-05-14T19:05:38.798Z,16.36
2023-05-14T19:08:05.643Z,16.26
2023-05-14T19:10:32.079Z,16.17
2023-05-14T19:12:58.424Z,16.07
2023-05-14T19:15:25.045Z,15.90
2023-05-14T19:17:51.765Z,15.81
2023-05-14T19:20:18.441Z,15.78
2023-05-14T19:22:44.928Z,15.71
2023-05-14T19:25:11.336Z,15.61
2023-05-14T19:27:38.438Z,15.52
2023-05-14T19:30:05.334Z,15.42
2023-05-14T19:32:31.749Z,15.35
2023-05-14T19:34:58.196Z,15.28
2023-05-14T19:37:24.497Z,15.22
2023-05-14T19:39:50.804Z,15.13
2023-05-14T19:42:17.322Z,15.02
2023-05-14T19:44:43.703Z,14.90
2023-05-14T19:47:10.188Z,14.81
2023-05-14T19:49:36.635Z,14.73
2023-05-14T19:52:03.076Z,14.64
2023-05-14T19:54:29.381Z,14.55
2023-05-14T19:56:55.732Z,14.42
2023-05-14T19:59:22.059Z,14.33
2023-05-14T20:01:48.360Z,14.25
2023-05-14T20:04:14.681Z,14.20
2023-05-14T20:06:40.996Z,14.12
2023-05-14T20:09:07.497Z,14.04
2023-05-14T20:11:33.882Z,13.98
2023-05-14T20:14:00.194Z,13.91
2023-05-14T20:16:26.539Z,13.83
2023-05-14T20:18:53.497Z,13.75
2023-05-14T20:21:19.961Z,13.67
2023-05-14T20:23:46.270Z,13.56
2023-05-14T20:26:12.599Z,13.48
2023-05-14T20:28:39.011Z,13.41
2023-05-14T20:31:05.326Z,13.37
2023-05-14T20:33:31.690Z,13.34
2023-05-14T20:35:58.130Z,13.27
2023-05-14T20:38:24.490Z,13.21
2023-05-14T20:40:50.824Z,13.20
2023-05-14T20:43:17.264Z,13.19
2023-05-14T20:45:43.609Z,13.22
2023-05-14T20:48:09.992Z,13.24
2023-05-14T20:50:37.581Z,13.25
2023-05-14T20:53:04.128Z,13.30
2023-05-14T20:55:30.606Z,13.32
2023-05-14T20:57:57.176Z,13.37
2023-05-14T21:00:23.506Z,13.40
2023-05-14T21:02:50.191Z,13.43
2023-05-14T21:05:17.033Z,13.45
2023-05-14T21:07:43.366Z,13.48
2023-05-14T21:10:10.545Z,13.50
2023-05-14T21:12:37.008Z,13.52
2023-05-14T21:15:03.553Z,13.51
2023-05-14T21:17:30.189Z,13.48
2023-05-14T21:19:56.586Z,13.44
2023-05-14T21:22:23.032Z,13.43
2023-05-14T21:24:50.299Z,13.42
2023-05-14T21:27:16.803Z,13.39
2023-05-14T21:29:43.255Z,13.38
2023-05-14T21:32:09.540Z,13.35
2023-05-14T21:34:35.976Z,13.34
2023-05-14T21:37:02.387Z,13.31
2023-05-14T21:39:28.772Z,13.28
2023-05-14T21:41:55.138Z,13.29
2023-05-14T21:44:22.036Z,13.25
2023-05-14T21:46:49.150Z,13.24
2023-05-14T21:49:15.533Z,13.23
2023-05-14T21:51:41.987Z,13.23
2023-05-14T21:54:11.060Z,13.23
2023-05-14T21:56:37.388Z,13.20
2023-05-14T21:59:03.740Z,13.18
2023-05-14T22:01:30.094Z,13.17
2023-05-14T22:03:57.689Z,13.17
2023-05-14T22:06:24.445Z,13.17
2023-05-14T22:08:50.797Z,13.18
2023-05-14T22:11:17.244Z,13.18
2023-05-14T22:13:43.814Z,13.15
2023-05-14T22:16:13.429Z,13.12
2023-05-14T22:18:40.215Z,13.08
2023-05-14T22:21:06.703Z,13.01
2023-05-14T22:23:33.083Z,12.99
2023-05-14T22:25:59.478Z,13.02
2023-05-14T22:28:25.906Z,13.01
2023-05-14T22:30:52.363Z,13.01
2023-05-14T22:33:18.655Z,13.01
2023-05-14T22:35:45.043Z,13.01
2023-05-14T22:38:12.340Z,12.98
2023-05-14T22:40:38.704Z,12.91
2023-05-14T22:43:05.041Z,12.86
2023-05-14T22:45:31.409Z,12.86
2023-05-14T22:47:58.617Z,12.88
2023-05-14T22:50:25.299Z,12.87
2023-05-14T22:52:51.769Z,12.79
2023-05-14T22:55:18.099Z,12.77
2023-05-14T22:57:44.414Z,12.78
2023-05-14T23:00:11.457Z,12.78
2023-05-14T23:02:37.791Z,12.75
2023-05-14T23:05:04.401Z,12.71
2023-05-14T23:07:30.963Z,12.65
2023-05-14T23:09:57.278Z,12.59
2023-05-14T23:12:23.668Z,12.48
2023-05-14T23:14:50.109Z,12.41
2023-05-14T23:17:17.273Z,12.39
2023-05-14T23:19:43.622Z,12.35
2023-05-14T23:22:09.946Z,12.33
2023-05-14T23:24:36.323Z,12.29
2023-05-14T23:27:02.778Z,12.26
2023-05-14T23:29:29.192Z,12.22
2023-05-14T23:31:55.499Z,12.16
2023-05-14T23:34:21.899Z,12.11
2023-05-14T23:36:48.254Z,12.06
2023-05-14T23:39:14.740Z,11.98
2023-05-14T23:41:41.155Z,11.94
2023-05-14T23:44:07.493Z,11.89
2023-05-14T23:46:33.918Z,11.84
2023-05-14T23:49:00.895Z,11.79
2023-05-14T23:51:27.534Z,11.73
2023-05-14T23:53:53.843Z,11.69
2023-05-14T23:56:20.223Z,11.65
2023-05-14T23:58:46.650Z,11.61
